Time;durP1;ratioP1;P1;durP2;ratioP2;P2;SDS_P1;SDS_P2;PMS_P1;PMS_P2;Temp;Humidity;BMP_temperature;BMP_pressure;BME280_temperature;BME280_humidity;BME280_pressure;Samples;Min_cycle;Max_cycle;Signal;HPM_P1;HPM_P2
2024/02/14 00:00:13;;;;;;;;;;;;;;;;;;4989389;28;20512;-68
2024/02/14 00:02:43;;;;;;;;;;;;;;;;;;4987135;28;19925;-67
2024/02/14 00:05:10;;;;;;;;;;;;;;;;;;4988292;28;19972;-67
2024/02/14 00:07:35;;;;;;;;;;;;;;;;;;4990074;28;19929;-68
2024/02/14 00:10:01;;;;;;;;;;;;;;;;;;4987239;28;19928;-67
2024/02/14 00:12:26;;;;;;;;;;;;;;;;;;4990555;28;20389;-68
2024/02/14 00:14:51;;;;;;;;;;;;;;;;;;4989879;28;19918;-68
2024/02/14 00:17:17;;;;;;;;;;;;;;;;;;4989527;28;19932;-67
2024/02/14 00:19:42;;;;;;;;;;;;;;;;;;4991487;28;19943;-71
2024/02/14 00:22:10;;;;;;;;;;;;;;;;;;4995662;28;20390;-68
2024/02/14 00:24:37;;;;;;;;;;;;;;;;;;4987841;28;19964;-66
2024/02/14 00:27:06;;;;;;;;;;;;;;;;;;4991534;28;20352;-67
2024/02/14 00:29:33;;;;;;;;;;;;;;;;;;4993407;28;19928;-67
2024/02/14 00:32:02;;;;;;;;;;;;;;;;;;4991254;28;19923;-67
2024/02/14 00:34:29;;;;;;;;;;;;;;;;;;4977988;28;20000;-68
2024/02/14 00:36:54;;;;;;;;;;;;;;;;;;4994838;28;19928;-68
2024/02/14 00:39:22;;;;;;;;;;;;;;;;;;4984459;28;19921;-68
2024/02/14 00:41:47;;;;;;;;;;;;;;;;;;4992659;28;19925;-68
2024/02/14 00:44:16;;;;;;;;;;;;;;;;;;4987868;28;19921;-68
2024/02/14 00:46:44;;;;;;;;;;;;;;;;;;4992312;28;20392;-68
2024/02/14 00:49:12;;;;;;;;;;;;;;;;;;4991797;28;19921;-68
2024/02/14 00:51:39;;;;;;;;;;;;;;;;;;4992644;28;19932;-68
2024/02/14 00:54:07;;;;;;;;;;;;;;;;;;5007113;28;19998;-68
2024/02/14 00:56:33;;;;;;;;;;;;;;;;;;4992703;28;19957;-68
2024/02/14 00:58:58;;;;;;;;;;;;;;;;;;4992321;28;20003;-68
2024/02/14 01:01:23;;;;;;;;;;;;;;;;;;4972049;28;20053;-67
2024/02/14 01:03:52;;;;;;;;;;;;;;;;;;4988006;28;19922;-68
2024/02/14 01:06:18;;;;;;;;;;;;;;;;;;4991524;28;19991;-67
2024/02/14 01:08:45;;;;;;;;;;;;;;;;;;4994014;28;20397;-67
2024/02/14 01:11:13;;;;;;;;;;;;;;;;;;4988169;28;20368;-66
2024/02/14 01:13:41;;;;;;;;;;;;;;;;;;4990165;28;20062;-67
2024/02/14 01:16:10;;;;;;;;;;;;;;;;;;4987081;28;19922;-67
2024/02/14 01:18:35;;;;;;;;;;;;;;;;;;4986900;28;20388;-66
2024/02/14 01:21:01;;;;;;;;;;;;;;;;;;4990004;28;19975;-67
2024/02/14 01:23:26;;;;;;;;;;;;;;;;;;4994118;28;20004;-67
2024/02/14 01:25:54;;;;;;;;;;;;;;;;;;4992793;28;19972;-67
2024/02/14 01:28:22;;;;;;;;;;;;;;;;;;4989911;28;19921;-67
2024/02/14 01:30:50;;;;;;;;;;;;;;;;;;4991476;28;19944;-67
2024/02/14 01:33:18;;;;;;;;;;;;;;;;;;4988791;28;19922;-67
2024/02/14 01:35:43;;;;;;;;;;;;;;;;;;4990833;28;19925;-67
2024/02/14 01:38:08;;;;;;;;;;;;;;;;;;4989641;28;19929;-67
2024/02/14 01:40:33;;;;;;;;;;;;;;;;;;4973974;28;19917;-67
2024/02/14 01:43:01;;;;;;;;;;;;;;;;;;4989583;28;19924;-67
2024/02/14 01:45:27;;;;;;;;;;;;;;;;;;4979945;28;19934;-66
2024/02/14 01:47:53;;;;;;;;;;;;;;;;;;4987053;28;19917;-66
2024/02/14 01:50:28;;;;;;;;;;;;;;;;;;4988913;28;19921;-66
2024/02/14 01:52:53;;;;;;;;;;;;;;;;;;5010398;28;19917;-68
2024/02/14 01:55:19;;;;;;;;;;;;;;;;;;4993569;28;19925;-68
2024/02/14 01:57:44;;;;;;;;;;;;;;;;;;4995632;28;20020;-67
2024/02/14 02:00:15;;;;;;;;;;;;;;;;;;4992182;28;19925;-67
2024/02/14 02:02:41;;;;;;;;;;;;;;;;;;4991571;28;19922;-67
2024/02/14 02:05:08;;;;;;;;;;;;;;;;;;4993241;28;19929;-68
2024/02/14 02:07:39;;;;;;;;;;;;;;;;;;4993700;28;19921;-67
2024/02/14 02:10:05;;;;;;;;;;;;;;;;;;4993440;28;19932;-67
2024/02/14 02:12:32;;;;;;;;;;;;;;;;;;4993273;28;19926;-68
2024/02/14 02:14:58;;;;;;;;;;;;;;;;;;4974633;28;19917;-67
2024/02/14 02:17:24;;;;;;;;;;;;;;;;;;4990909;28;19948;-67
2024/02/14 02:19:49;;;;;;;;;;;;;;;;;;4991785;28;19944;-67
2024/02/14 02:22:14;;;;;;;;;;;;;;;;;;4991538;28;20320;-67
2024/02/14 02:24:40;;;;;;;;;;;;;;;;;;4991422;28;19957;-68
2024/02/14 02:27:13;;;;;;;;;;;;;;;;;;4987904;28;20500;-67
2024/02/14 02:29:41;;;;;;;;;;;;;;;;;;4988512;28;19925;-66
2024/02/14 02:32:09;;;;;;;;;;;;;;;;;;4994525;28;19922;-67
2024/02/14 02:34:36;;;;;;;;;;;;;;;;;;4992749;28;19964;-68
2024/02/14 02:37:07;;;;;;;;;;;;;;;;;;4992062;28;19921;-67
2024/02/14 02:39:37;;;;;;;;;;;;;;;;;;4989787;28;19921;-68
2024/02/14 02:42:05;;;;;;;;;;;;;;;;;;4987851;28;19922;-68
2024/02/14 02:44:33;;;;;;;;;;;;;;;;;;5005910;28;19928;-67
2024/02/14 02:47:00;;;;;;;;;;;;;;;;;;4986132;28;20322;-68
2024/02/14 02:49:25;;;;;;;;;;;;;;;;;;4989391;28;19929;-68
2024/02/14 02:51:54;;;;;;;;;;;;;;;;;;4991022;28;20518;-68
2024/02/14 02:54:20;;;;;;;;;;;;;;;;;;4990605;28;19928;-68
2024/02/14 02:56:48;;;;;;;;;;;;;;;;;;5006340;28;20674;-68
2024/02/14 02:59:15;;;;;;;;;;;;;;;;;;4993448;28;21009;-68
2024/02/14 03:01:44;;;;;;;;;;;;;;;;;;4991102;28;20020;-69
2024/02/14 03:04:09;;;;;;;;;;;;;;;;;;4992309;28;19971;-68
2024/02/14 03:06:38;;;;;;;;;;;;;;;;;;4993933;28;20578;-68
2024/02/14 03:09:03;;;;;;;;;;;;;;;;;;4990435;28;20038;-68
2024/02/14 03:11:31;;;;;;;;;;;;;;;;;;4989713;28;19917;-68
2024/02/14 03:13:56;;;;;;;;;;;;;;;;;;4991036;28;19963;-68
2024/02/14 03:16:24;;;;;;;;;;;;;;;;;;4991435;28;19918;-68
2024/02/14 03:18:50;;;;;;;;;;;;;;;;;;4991714;28;19995;-68
2024/02/14 03:21:15;;;;;;;;;;;;;;;;;;4987955;28;19978;-68
2024/02/14 03:23:45;;;;;;;;;;;;;;;;;;4989863;28;19992;-68
2024/02/14 03:26:10;;;;;;;;;;;;;;;;;;4991537;28;20045;-68
2024/02/14 03:28:39;;;;;;;;;;;;;;;;;;4990929;28;20020;-68
2024/02/14 03:31:04;;;;;;;;;;;;;;;;;;4990341;28;19917;-68
2024/02/14 03:33:32;;;;;;;;;;;;;;;;;;4991894;28;19925;-68
2024/02/14 03:35:59;;;;;;;;;;;;;;;;;;4992691;28;20289;-68
2024/02/14 03:38:27;;;;;;;;;;;;;;;;;;4992075;28;19921;-68
2024/02/14 03:40:52;;;;;;;;;;;;;;;;;;4989984;28;19917;-68
2024/02/14 03:43:17;;;;;;;;;;;;;;;;;;4990198;28;19944;-68
2024/02/14 03:45:42;;;;;;;;;;;;;;;;;;4991909;28;19976;-68
2024/02/14 03:48:09;;;;;;;;;;;;;;;;;;4990595;28;22168;-68
2024/02/14 03:50:35;;;;;;;;;;;;;;;;;;4991236;28;19941;-68
2024/02/14 03:53:01;;;;;;;;;;;;;;;;;;4992104;28;19929;-68
2024/02/14 03:55:27;;;;;;;;;;;;;;;;;;5004537;28;19918;-68
2024/02/14 03:57:52;;;;;;;;;;;;;;;;;;4995811;28;19944;-67
2024/02/14 04:00:22;;;;;;;;;;;;;;;;;;4990767;28;19917;-68
2024/02/14 04:02:48;;;;;;;;;;;;;;;;;;4988369;28;19976;-68
2024/02/14 04:05:13;;;;;;;;;;;;;;;;;;4966868;28;19922;-69
2024/02/14 04:07:44;;;;;;;;;;;;;;;;;;4983621;28;19921;-69
2024/02/14 04:10:09;;;;;;;;;;;;;;;;;;4986707;28;19998;-69
2024/02/14 04:12:34;;;;;;;;;;;;;;;;;;4989248;28;20024;-67
2024/02/14 04:15:03;;;;;;;;;;;;;;;;;;4990861;28;19914;-68
2024/02/14 04:17:28;;;;;;;;;;;;;;;;;;4989212;28;19928;-68
2024/02/14 04:19:53;;;;;;;;;;;;;;;;;;4984724;28;19991;-67
2024/02/14 04:22:19;;;;;;;;;;;;;;;;;;4996489;28;19945;-68
2024/02/14 04:24:44;;;;;;;;;;;;;;;;;;4988586;28;19994;-68
2024/02/14 04:27:09;;;;;;;;;;;;;;;;;;4988141;28;19929;-68
2024/02/14 04:29:37;;;;;;;;;;;;;;;;;;4987139;28;21558;-68
2024/02/14 04:32:02;;;;;;;;;;;;;;;;;;4987021;28;20001;-68
2024/02/14 04:34:28;;;;;;;;;;;;;;;;;;4984891;28;19918;-69
2024/02/14 04:36:53;;;;;;;;;;;;;;;;;;4990827;28;19922;-68
2024/02/14 04:39:19;;;;;;;;;;;;;;;;;;4987768;28;20424;-69
2024/02/14 04:41:44;;;;;;;;;;;;;;;;;;4987805;28;19933;-69
2024/02/14 04:44:12;;;;;;;;;;;;;;;;;;4988114;28;19925;-69
2024/02/14 04:46:39;;;;;;;;;;;;;;;;;;4988862;28;20315;-70
2024/02/14 04:49:04;;;;;;;;;;;;;;;;;;4988928;28;20385;-69
2024/02/14 04:51:30;;;;;;;;;;;;;;;;;;4974573;28;20058;-70
2024/02/14 04:53:58;;;;;;;;;;;;;;;;;;4987052;28;20348;-69
2024/02/14 04:56:23;;;;;;;;;;;;;;;;;;4989147;28;19921;-70
2024/02/14 04:58:49;;;;;;;;;;;;;;;;;;4992444;28;20019;-72
2024/02/14 05:01:18;;;;;;;;;;;;;;;;;;4988180;28;19918;-69
2024/02/14 05:03:45;;;;;;;;;;;;;;;;;;4986304;28;19921;-70
2024/02/14 05:06:11;;;;;;;;;;;;;;;;;;4991861;28;19925;-68
2024/02/14 05:08:38;;;;;;;;;;;;;;;;;;4987994;28;19917;-70
2024/02/14 05:11:03;;;;;;;;;;;;;;;;;;4982219;28;19914;-71
2024/02/14 05:13:29;;;;;;;;;;;;;;;;;;4986717;28;20959;-69
2024/02/14 05:15:54;;;;;;;;;;;;;;;;;;4992886;28;19922;-70
2024/02/14 05:18:20;;;;;;;;;;;;;;;;;;4990895;28;19917;-69
2024/02/14 05:20:47;;;;;;;;;;;;;;;;;;4989195;28;19956;-70
2024/02/14 05:23:17;;;;;;;;;;;;;;;;;;4986911;28;19921;-69
2024/02/14 05:25:43;;;;;;;;;;;;;;;;;;4991578;28;19976;-69
2024/02/14 05:28:13;;;;;;;;;;;;;;;;;;4987227;28;19929;-69
2024/02/14 05:30:38;;;;;;;;;;;;;;;;;;4991625;28;20092;-70
2024/02/14 05:33:03;;;;;;;;;;;;;;;;;;4985521;28;19917;-69
2024/02/14 05:35:29;;;;;;;;;;;;;;;;;;4988152;28;19948;-70
2024/02/14 05:37:57;;;;;;;;;;;;;;;;;;4986823;28;19995;-69
2024/02/14 05:40:24;;;;;;;;;;;;;;;;;;4988572;28;19929;-71
2024/02/14 05:42:49;;;;;;;;;;;;;;;;;;4989501;28;20004;-68
2024/02/14 05:45:17;;;;;;;;;;;;;;;;;;4979679;28;19948;-69
2024/02/14 05:47:42;;;;;;;;;;;;;;;;;;4988013;28;19925;-69
2024/02/14 05:50:08;;;;;;;;;;;;;;;;;;4983999;28;19921;-69
2024/02/14 05:52:34;;;;;;;;;;;;;;;;;;4985666;28;19924;-69
2024/02/14 05:54:59;;;;;;;;;;;;;;;;;;4990183;28;19921;-71
2024/02/14 05:57:27;;;;;;;;;;;;;;;;;;4988809;28;19921;-68
2024/02/14 05:59:52;;;;;;;;;;;;;;;;;;5003543;28;19921;-69
2024/02/14 06:02:18;;;;;;;;;;;;;;;;;;4988393;28;19925;-68
2024/02/14 06:04:46;;;;;;;;;;;;;;;;;;4989244;28;19975;-68
2024/02/14 06:07:11;;;;;;;;;;;;;;;;;;4989026;28;19921;-70
2024/02/14 06:09:37;;;;;;;;;;;;;;;;;;4992464;28;20387;-68
2024/02/14 06:12:03;;;;;;;;;;;;;;;;;;4983007;28;20534;-69
2024/02/14 06:14:33;;;;;;;;;;;;;;;;;;4985739;28;19932;-69
2024/02/14 06:16:59;;;;;;;;;;;;;;;;;;4990116;28;19922;-69
2024/02/14 06:19:24;;;;;;;;;;;;;;;;;;4988204;28;20069;-71
2024/02/14 06:21:50;;;;;;;;;;;;;;;;;;4990060;28;19921;-68
2024/02/14 06:24:15;;;;;;;;;;;;;;;;;;4998014;28;20249;-70
2024/02/14 06:26:40;;;;;;;;;;;;;;;;;;4998259;28;19925;-68
2024/02/14 06:29:06;;;;;;;;;;;;;;;;;;4993566;28;21400;-68
2024/02/14 06:31:32;;;;;;;;;;;;;;;;;;4992582;28;19921;-70
2024/02/14 06:33:57;;;;;;;;;;;;;;;;;;4992707;28;19928;-70
2024/02/14 06:36:23;;;;;;;;;;;;;;;;;;4998306;28;20000;-69
2024/02/14 06:38:49;;;;;;;;;;;;;;;;;;4995593;28;19921;-69
2024/02/14 06:41:14;;;;;;;;;;;;;;;;;;4988414;28;19929;-71
2024/02/14 06:43:40;;;;;;;;;;;;;;;;;;4993963;28;20056;-71
2024/02/14 06:46:07;;;;;;;;;;;;;;;;;;4998828;28;20269;-70
2024/02/14 06:48:33;;;;;;;;;;;;;;;;;;4992060;28;20390;-71
2024/02/14 06:50:59;;;;;;;;;;;;;;;;;;4991489;28;19913;-72
2024/02/14 06:53:24;;;;;;;;;;;;;;;;;;4988358;28;19961;-72
2024/02/14 06:55:50;;;;;;;;;;;;;;;;;;4993750;28;20004;-69
2024/02/14 06:58:15;;;;;;;;;;;;;;;;;;4988869;28;20012;-71
2024/02/14 07:00:40;;;;;;;;;;;;;;;;;;4993512;28;19922;-69
2024/02/14 07:03:06;;;;;;;;;;;;;;;;;;4994602;28;19922;-70
2024/02/14 07:05:31;;;;;;;;;;;;;;;;;;4992857;28;20325;-70
2024/02/14 07:07:59;;;;;;;;;;;;;;;;;;4997178;28;19921;-71
2024/02/14 07:10:25;;;;;;;;;;;;;;;;;;4997080;28;19921;-73
2024/02/14 07:12:50;;;;;;;;;;;;;;;;;;4995474;28;19933;-74
2024/02/14 07:15:16;;;;;;;;;;;;;;;;;;4998591;28;19918;-70
2024/02/14 07:17:41;;;;;;;;;;;;;;;;;;4999978;28;19913;-73
2024/02/14 07:20:09;;;;;;;;;;;;;;;;;;4994139;28;20015;-77
2024/02/14 07:22:34;;;;;;;;;;;;;;;;;;4995177;28;20036;-71
2024/02/14 07:25:04;;;;;;;;;;;;;;;;;;4998616;28;20418;-73
2024/02/14 07:27:30;;;;;;;;;;;;;;;;;;4999343;28;19964;-73
2024/02/14 07:29:55;;;;;;;;;;;;;;;;;;4972479;28;20009;-73
2024/02/14 07:32:21;;;;;;;;;;;;;;;;;;4997366;28;19921;-73
2024/02/14 07:34:46;;;;;;;;;;;;;;;;;;4992768;28;20385;-71
2024/02/14 07:37:12;;;;;;;;;;;;;;;;;;4995467;28;21317;-76
2024/02/14 07:39:37;;;;;;;;;;;;;;;;;;4992663;28;19922;-71
2024/02/14 07:42:05;;;;;;;;;;;;;;;;;;4996991;28;20016;-77
2024/02/14 07:44:33;;;;;;;;;;;;;;;;;;4993964;28;19925;-73
2024/02/14 07:46:58;;;;;;;;;;;;;;;;;;4997971;28;20783;-73
2024/02/14 07:49:24;;;;;;;;;;;;;;;;;;4993944;28;19952;-72
2024/02/14 07:51:49;;;;;;;;;;;;;;;;;;4995018;28;19932;-71
2024/02/14 07:54:15;;;;;;;;;;;;;;;;;;4995740;28;20048;-72
2024/02/14 07:56:41;;;;;;;;;;;;;;;;;;4995401;28;20050;-72
2024/02/14 07:59:06;;;;;;;;;;;;;;;;;;4994122;28;20341;-72
2024/02/14 08:01:32;;;;;;;;;;;;;;;;;;4992283;28;19967;-71
2024/02/14 08:03:58;;;;;;;;;;;;;;;;;;4993818;28;19975;-73
2024/02/14 08:06:23;;;;;;;;;;;;;;;;;;4995238;28;19998;-72
2024/02/14 08:08:51;;;;;;;;;;;;;;;;;;4994203;28;19922;-72
2024/02/14 08:11:17;;;;;;;;;;;;;;;;;;4992518;28;20471;-71
2024/02/14 08:13:42;;;;;;;;;;;;;;;;;;4995000;28;20003;-72
2024/02/14 08:16:08;;;;;;;;;;;;;;;;;;4991960;28;20040;-70
2024/02/14 08:18:33;;;;;;;;;;;;;;;;;;4992792;28;19917;-68
2024/02/14 08:20:59;;;;;;;;;;;;;;;;;;4992885;28;20008;-69
2024/02/14 08:23:24;;;;;;;;;;;;;;;;;;4980826;28;19957;-74
2024/02/14 08:25:51;;;;;;;;;;;;;;;;;;4992840;28;19932;-69
2024/02/14 08:28:21;;;;;;;;;;;;;;;;;;4989052;28;20414;-70
2024/02/14 08:30:47;;;;;;;;;;;;;;;;;;4993309;28;19917;-71
2024/02/14 08:33:13;;;;;;;;;;;;;;;;;;4997387;28;20007;-70
2024/02/14 08:35:38;;;;;;;;;;;;;;;;;;4992133;28;20361;-71
2024/02/14 08:38:03;;;;;;;;;;;;;;;;;;4989116;28;20234;-72
2024/02/14 08:40:29;;;;;;;;;;;;;;;;;;4992878;28;20480;-71
2024/02/14 08:42:54;;;;;;;;;;;;;;;;;;4994291;28;20612;-71
2024/02/14 08:45:20;;;;;;;;;;;;;;;;;;4994886;28;20012;-71
2024/02/14 08:47:48;;;;;;;;;;;;;;;;;;4992978;28;19922;-73
2024/02/14 08:50:13;;;;;;;;;;;;;;;;;;4993001;28;19928;-71
2024/02/14 08:52:40;;;;;;;;;;;;;;;;;;4989976;28;19929;-71
2024/02/14 08:55:16;;;;;;;;;;;;;;;;;;4991629;28;19921;-73
2024/02/14 08:57:42;;;;;;;;;;;;;;;;;;4993951;28;22005;-71
2024/02/14 09:00:07;;;;;;;;;;;;;;;;;;4994463;28;20001;-71
2024/02/14 09:02:34;;;;;;;;;;;;;;;;;;4993726;28;19922;-72
2024/02/14 09:05:01;;;;;;;;;;;;;;;;;;4994262;28;19922;-70
2024/02/14 09:07:26;;;;;;;;;;;;;;;;;;4990798;28;20401;-71
2024/02/14 09:09:51;;;;;;;;;;;;;;;;;;4990114;28;19948;-72
2024/02/14 09:12:17;;;;;;;;;;;;;;;;;;4992915;28;19917;-71
2024/02/14 09:14:43;;;;;;;;;;;;;;;;;;4992717;28;20000;-73
2024/02/14 09:17:08;;;;;;;;;;;;;;;;;;4992445;28;19956;-71
2024/02/14 09:19:33;;;;;;;;;;;;;;;;;;4990909;28;19928;-71
2024/02/14 09:21:59;;;;;;;;;;;;;;;;;;4989591;28;20052;-71
2024/02/14 09:24:24;;;;;;;;;;;;;;;;;;4996837;28;20190;-74
2024/02/14 09:26:50;;;;;;;;;;;;;;;;;;4993678;28;19936;-73
2024/02/14 09:29:15;;;;;;;;;;;;;;;;;;4987959;28;19922;-71
2024/02/14 09:31:41;;;;;;;;;;;;;;;;;;4990858;28;20226;-71
2024/02/14 09:34:07;;;;;;;;;;;;;;;;;;4995985;28;19967;-72
2024/02/14 09:36:34;;;;;;;;;;;;;;;;;;4994904;28;20442;-77
2024/02/14 09:39:05;;;;;;;;;;;;;;;;;;4993548;28;19939;-72
2024/02/14 09:41:31;;;;;;;;;;;;;;;;;;4987681;28;20665;-72
2024/02/14 09:43:56;;;;;;;;;;;;;;;;;;4973716;28;20024;-73
2024/02/14 09:46:22;;;;;;;;;;;;;;;;;;4993532;28;19951;-72
2024/02/14 09:48:49;;;;;;;;;;;;;;;;;;4991305;28;20004;-75
2024/02/14 09:51:18;;;;;;;;;;;;;;;;;;4992707;28;20292;-71
2024/02/14 09:53:44;;;;;;;;;;;;;;;;;;4992543;28;19960;-71
2024/02/14 09:56:09;;;;;;;;;;;;;;;;;;4993567;28;19921;-72
2024/02/14 09:58:36;;;;;;;;;;;;;;;;;;4997150;28;21845;-70
2024/02/14 10:01:01;;;;;;;;;;;;;;;;;;4992903;28;20230;-72
2024/02/14 10:03:27;;;;;;;;;;;;;;;;;;4991484;28;20306;-73
2024/02/14 10:06:11;;;;;;;;;;;;;;;;;;4993115;28;20193;-73
2024/02/14 10:08:39;;;;;;;;;;;;;;;;;;4995273;28;20030;-72
2024/02/14 10:11:07;;;;;;;;;;;;;;;;;;4997395;28;21552;-73
2024/02/14 10:13:53;;;;;;;;;;;;;;;;;;4996525;28;20037;-71
2024/02/14 10:16:18;;;;;;;;;;;;;;;;;;4997320;28;19920;-75
2024/02/14 10:18:44;;;;;;;;;;;;;;;;;;5001462;28;19918;-74
2024/02/14 10:21:09;;;;;;;;;;;;;;;;;;5001203;28;19925;-72
2024/02/14 10:23:34;;;;;;;;;;;;;;;;;;5001019;28;19921;-73
2024/02/14 10:26:00;;;;;;;;;;;;;;;;;;4999961;28;20389;-75
2024/02/14 10:28:25;;;;;;;;;;;;;;;;;;4996364;28;19983;-73
2024/02/14 10:30:51;;;;;;;;;;;;;;;;;;5002050;28;19976;-71
2024/02/14 10:33:16;;;;;;;;;;;;;;;;;;5001311;28;19928;-71
2024/02/14 10:35:42;;;;;;;;;;;;;;;;;;5003003;28;19922;-73
2024/02/14 10:38:09;;;;;;;;;;;;;;;;;;5001089;28;19921;-74
2024/02/14 10:40:34;;;;;;;;;;;;;;;;;;5004580;28;19968;-74
2024/02/14 10:43:00;;;;;;;;;;;;;;;;;;5004531;28;19917;-73
2024/02/14 10:45:26;;;;;;;;;;;;;;;;;;5014112;28;20431;-73
2024/02/14 10:47:51;;;;;;;;;;;;;;;;;;4998263;28;19918;-73
2024/02/14 10:50:16;;;;;;;;;;;;;;;;;;4997379;28;19929;-72
2024/02/14 10:52:42;;;;;;;;;;;;;;;;;;4979852;28;19921;-75
2024/02/14 10:55:07;;;;;;;;;;;;;;;;;;4981276;28;21806;-73
2024/02/14 10:57:32;;;;;;;;;;;;;;;;;;4997726;28;19918;-73
2024/02/14 11:00:01;;;;;;;;;;;;;;;;;;4999383;28;20825;-72
2024/02/14 11:02:30;;;;;;;;;;;;;;;;;;4996141;28;19970;-75
2024/02/14 11:04:55;;;;;;;;;;;;;;;;;;4997268;28;19980;-72
2024/02/14 11:07:22;;;;;;;;;;;;;;;;;;4997882;28;20224;-77
2024/02/14 11:09:48;;;;;;;;;;;;;;;;;;4998878;28;19922;-73
2024/02/14 11:12:14;;;;;;;;;;;;;;;;;;5001376;28;19977;-73
2024/02/14 11:14:40;;;;;;;;;;;;;;;;;;4995741;28;19949;-77
2024/02/14 11:17:09;;;;;;;;;;;;;;;;;;5011628;28;20308;-72
2024/02/14 11:19:35;;;;;;;;;;;;;;;;;;4994953;28;19918;-74
2024/02/14 11:22:01;;;;;;;;;;;;;;;;;;4996462;28;20839;-74
2024/02/14 11:24:27;;;;;;;;;;;;;;;;;;4991196;28;19929;-72
2024/02/14 11:26:53;;;;;;;;;;;;;;;;;;4999194;28;19922;-74
2024/02/14 11:29:19;;;;;;;;;;;;;;;;;;4997349;28;19921;-75
2024/02/14 11:31:44;;;;;;;;;;;;;;;;;;5000070;28;19920;-74
2024/02/14 11:34:10;;;;;;;;;;;;;;;;;;4998197;28;20005;-76
2024/02/14 11:36:35;;;;;;;;;;;;;;;;;;4996744;28;22101;-75
2024/02/14 11:39:02;;;;;;;;;;;;;;;;;;5002035;28;19914;-76
2024/02/14 11:41:27;;;;;;;;;;;;;;;;;;5014074;28;19926;-73
2024/02/14 11:43:52;;;;;;;;;;;;;;;;;;4997851;28;19958;-74
2024/02/14 11:46:18;;;;;;;;;;;;;;;;;;4998305;28;19921;-76
2024/02/14 11:48:45;;;;;;;;;;;;;;;;;;4994524;28;20036;-72
2024/02/14 11:51:10;;;;;;;;;;;;;;;;;;4980099;28;20391;-73
2024/02/14 11:53:36;;;;;;;;;;;;;;;;;;4996658;28;19921;-72
2024/02/14 11:56:02;;;;;;;;;;;;;;;;;;4992707;28;19929;-73
2024/02/14 11:58:27;;;;;;;;;;;;;;;;;;4997800;28;19918;-74
2024/02/14 12:00:53;;;;;;;;;;;;;;;;;;4998866;28;19920;-72
2024/02/14 12:03:18;;;;;;;;;;;;;;;;;;4998185;28;19924;-72
2024/02/14 12:05:47;;;;;;;;;;;;;;;;;;4992707;28;19933;-73
2024/02/14 12:08:12;;;;;;;;;;;;;;;;;;4997677;28;19921;-71
2024/02/14 12:10:38;;;;;;;;;;;;;;;;;;4992103;28;20934;-73
2024/02/14 12:13:03;;;;;;;;;;;;;;;;;;4998606;28;20013;-72
2024/02/14 12:15:28;;;;;;;;;;;;;;;;;;4991817;28;19917;-74
2024/02/14 12:17:54;;;;;;;;;;;;;;;;;;4994809;28;20383;-72
2024/02/14 12:20:20;;;;;;;;;;;;;;;;;;4991509;28;19922;-72
2024/02/14 12:22:45;;;;;;;;;;;;;;;;;;4996984;28;19928;-72
2024/02/14 12:25:11;;;;;;;;;;;;;;;;;;4997550;28;20771;-72
2024/02/14 12:27:36;;;;;;;;;;;;;;;;;;4990501;28;20341;-73
2024/02/14 12:30:03;;;;;;;;;;;;;;;;;;4992768;28;19917;-73
2024/02/14 12:32:28;;;;;;;;;;;;;;;;;;4995313;28;19922;-69
2024/02/14 12:34:53;;;;;;;;;;;;;;;;;;4994357;28;19925;-71
2024/02/14 12:37:19;;;;;;;;;;;;;;;;;;4996811;28;19949;-73
2024/02/14 12:39:44;;;;;;;;;;;;;;;;;;4993022;28;20075;-72
2024/02/14 12:42:10;;;;;;;;;;;;;;;;;;4996449;28;19918;-73
2024/02/14 12:44:37;;;;;;;;;;;;;;;;;;4994150;28;20013;-70
2024/02/14 12:47:03;;;;;;;;;;;;;;;;;;4994295;28;19922;-73
2024/02/14 12:49:32;;;;;;;;;;;;;;;;;;4995797;28;20388;-71
2024/02/14 12:51:58;;;;;;;;;;;;;;;;;;5000473;28;19922;-76
2024/02/14 12:54:23;;;;;;;;;;;;;;;;;;4994582;28;19921;-71
2024/02/14 12:56:49;;;;;;;;;;;;;;;;;;4996781;28;20008;-71
2024/02/14 12:59:15;;;;;;;;;;;;;;;;;;4993700;28;19928;-72
2024/02/14 13:01:41;;;;;;;;;;;;;;;;;;4996355;28;20356;-74
2024/02/14 13:04:07;;;;;;;;;;;;;;;;;;4997311;28;21125;-73
2024/02/14 13:06:33;;;;;;;;;;;;;;;;;;4995690;28;19952;-74
2024/02/14 13:09:00;;;;;;;;;;;;;;;;;;4992541;28;19945;-74
2024/02/14 13:11:25;;;;;;;;;;;;;;;;;;4991776;28;19917;-73
2024/02/14 13:13:50;;;;;;;;;;;;;;;;;;4993711;28;20448;-76
2024/02/14 13:16:17;;;;;;;;;;;;;;;;;;4992175;28;19921;-72
2024/02/14 13:18:42;;;;;;;;;;;;;;;;;;4991408;28;19929;-73
2024/02/14 13:21:08;;;;;;;;;;;;;;;;;;4992056;28;19929;-73
2024/02/14 13:23:33;;;;;;;;;;;;;;;;;;4990965;28;19921;-72
2024/02/14 13:25:59;;;;;;;;;;;;;;;;;;4994782;28;19925;-73
2024/02/14 13:28:24;;;;;;;;;;;;;;;;;;4977421;28;19948;-75
2024/02/14 13:30:50;;;;;;;;;;;;;;;;;;4995606;28;19918;-72
2024/02/14 13:33:15;;;;;;;;;;;;;;;;;;4992808;28;19987;-75
2024/02/14 13:35:40;;;;;;;;;;;;;;;;;;4992726;28;19924;-71
2024/02/14 13:38:06;;;;;;;;;;;;;;;;;;4994216;28;19917;-73
2024/02/14 13:40:31;;;;;;;;;;;;;;;;;;4992305;28;20047;-74
2024/02/14 13:42:57;;;;;;;;;;;;;;;;;;4979034;28;19929;-72
2024/02/14 13:45:22;;;;;;;;;;;;;;;;;;4994197;28;19925;-73
2024/02/14 13:47:48;;;;;;;;;;;;;;;;;;4997576;28;19917;-74
2024/02/14 13:50:13;;;;;;;;;;;;;;;;;;4997847;28;19917;-74
2024/02/14 13:52:39;;;;;;;;;;;;;;;;;;4997866;28;19967;-73
2024/02/14 13:55:05;;;;;;;;;;;;;;;;;;4999624;28;19922;-77
2024/02/14 13:57:30;;;;;;;;;;;;;;;;;;5002255;28;19927;-73
2024/02/14 13:59:56;;;;;;;;;;;;;;;;;;4997263;28;20352;-72
2024/02/14 14:02:22;;;;;;;;;;;;;;;;;;4981316;28;20500;-71
2024/02/14 14:04:49;;;;;;;;;;;;;;;;;;4999453;28;19927;-72
2024/02/14 14:07:17;;;;;;;;;;;;;;;;;;4994911;28;20004;-72
2024/02/14 14:09:42;;;;;;;;;;;;;;;;;;5000063;28;20282;-71
2024/02/14 14:12:08;;;;;;;;;;;;;;;;;;4997669;28;19921;-72
2024/02/14 14:14:34;;;;;;;;;;;;;;;;;;4997000;28;19921;-71
2024/02/14 14:17:00;;;;;;;;;;;;;;;;;;4994115;28;19919;-75
2024/02/14 14:19:25;;;;;;;;;;;;;;;;;;4998284;28;20020;-73
2024/02/14 14:21:51;;;;;;;;;;;;;;;;;;4998029;28;19927;-74
2024/02/14 14:24:16;;;;;;;;;;;;;;;;;;4998543;28;19956;-73
2024/02/14 14:26:41;;;;;;;;;;;;;;;;;;4980534;28;19921;-73
2024/02/14 14:29:08;;;;;;;;;;;;;;;;;;4996598;28;19921;-74
2024/02/14 14:31:35;;;;;;;;;;;;;;;;;;4994455;28;20004;-71
2024/02/14 14:34:01;;;;;;;;;;;;;;;;;;4996762;28;19918;-72
2024/02/14 14:36:26;;;;;;;;;;;;;;;;;;4995105;28;20377;-70
2024/02/14 14:38:54;;;;;;;;;;;;;;;;;;4996528;28;19921;-72
2024/02/14 14:41:19;;;;;;;;;;;;;;;;;;4996298;28;19921;-72
2024/02/14 14:43:45;;;;;;;;;;;;;;;;;;4995856;28;19987;-72
2024/02/14 14:46:13;;;;;;;;;;;;;;;;;;4994646;28;19926;-71
2024/02/14 14:48:38;;;;;;;;;;;;;;;;;;4998115;28;20456;-72
2024/02/14 14:51:08;;;;;;;;;;;;;;;;;;4996536;28;19932;-74
2024/02/14 14:53:35;;;;;;;;;;;;;;;;;;4997629;28;19945;-72
2024/02/14 14:56:00;;;;;;;;;;;;;;;;;;4994287;28;19929;-71
2024/02/14 14:58:33;;;;;;;;;;;;;;;;;;4994403;28;19921;-71
2024/02/14 15:00:59;;;;;;;;;;;;;;;;;;4995523;28;19976;-71
2024/02/14 15:03:24;;;;;;;;;;;;;;;;;;4997664;28;19944;-72
2024/02/14 15:05:50;;;;;;;;;;;;;;;;;;4995810;28;20420;-72
2024/02/14 15:08:17;;;;;;;;;;;;;;;;;;4995304;28;20508;-71
2024/02/14 15:10:43;;;;;;;;;;;;;;;;;;4993211;28;19921;-72
2024/02/14 15:13:08;;;;;;;;;;;;;;;;;;4991315;28;20490;-72
2024/02/14 15:15:34;;;;;;;;;;;;;;;;;;4992895;28;20278;-73
2024/02/14 15:17:59;;;;;;;;;;;;;;;;;;4994015;28;20419;-73
2024/02/14 15:20:24;;;;;;;;;;;;;;;;;;4995262;28;19918;-71
2024/02/14 15:22:50;;;;;;;;;;;;;;;;;;4979696;28;19918;-69
2024/02/14 15:25:16;;;;;;;;;;;;;;;;;;4993694;28;19921;-70
2024/02/14 15:27:54;;;;;;;;;;;;;;;;;;4929491;28;1920559;-72
2024/02/14 15:33:22;;;;;;;;;;;;;;;;;;4995582;28;20361;-70
2024/02/14 15:35:50;;;;;;;;;;;;;;;;;;4995794;28;19921;-73
2024/02/14 15:38:19;;;;;;;;;;;;;;;;;;4995044;28;20344;-70
2024/02/14 15:40:44;;;;;;;;;;;;;;;;;;4997026;28;20012;-70
2024/02/14 15:43:10;;;;;;;;;;;;;;;;;;4995425;28;20391;-72
2024/02/14 15:45:36;;;;;;;;;;;;;;;;;;4995269;28;20497;-69
2024/02/14 15:48:02;;;;;;;;;;;;;;;;;;4994112;28;20380;-70
2024/02/14 15:50:27;;;;;;;;;;;;;;;;;;4989342;28;19918;-72
2024/02/14 15:52:54;;;;;;;;;;;;;;;;;;4995170;28;20373;-70
2024/02/14 15:55:19;;;;;;;;;;;;;;;;;;4995775;28;19921;-71
2024/02/14 15:57:46;;;;;;;;;;;;;;;;;;4997028;28;19917;-70
2024/02/14 16:00:11;;;;;;;;;;;;;;;;;;4990616;28;19921;-70
2024/02/14 16:02:37;;;;;;;;;;;;;;;;;;4997337;28;20365;-71
2024/02/14 16:05:03;;;;;;;;;;;;;;;;;;4993878;28;19992;-71
2024/02/14 16:07:28;;;;;;;;;;;;;;;;;;4995512;28;20357;-72
2024/02/14 16:09:54;;;;;;;;;;;;;;;;;;4995931;28;19913;-73
2024/02/14 16:12:20;;;;;;;;;;;;;;;;;;4993054;28;20463;-70
2024/02/14 16:14:45;;;;;;;;;;;;;;;;;;4996063;28;20015;-70
2024/02/14 16:17:11;;;;;;;;;;;;;;;;;;4995956;28;20277;-70
2024/02/14 16:19:36;;;;;;;;;;;;;;;;;;4993915;28;19961;-73
2024/02/14 16:22:03;;;;;;;;;;;;;;;;;;4991558;28;19917;-71
2024/02/14 16:24:30;;;;;;;;;;;;;;;;;;4977569;28;19990;-72
2024/02/14 16:26:55;;;;;;;;;;;;;;;;;;4990537;28;20020;-72
2024/02/14 16:29:21;;;;;;;;;;;;;;;;;;4997087;28;20294;-71
2024/02/14 16:31:46;;;;;;;;;;;;;;;;;;4994692;28;19921;-73
2024/02/14 16:34:12;;;;;;;;;;;;;;;;;;4994296;28;19975;-72
2024/02/14 16:36:39;;;;;;;;;;;;;;;;;;4995283;28;19929;-72
2024/02/14 16:39:06;;;;;;;;;;;;;;;;;;4994893;28;20015;-69
2024/02/14 16:41:31;;;;;;;;;;;;;;;;;;4990615;28;20670;-70